Time;durP1;ratioP1;P1;durP2;ratioP2;P2;SDS_P1;SDS_P2;PMS_P1;PMS_P2;Temp;Humidity;BMP_temperature;BMP_pressure;BME280_temperature;BME280_humidity;BME280_pressure;Samples;Min_cycle;Max_cycle;Signal;HPM_P1;HPM_P2
2023/06/13 00:00:00;;;;;;;3.58;2.80;;;;;;;;;;4999547;28;20234;-52
2023/06/13 00:02:29;;;;;;;3.33;3.13;;;;;;;;;;5000472;28;20744;-52
2023/06/13 00:04:55;;;;;;;5.22;3.70;;;;;;;;;;5005614;28;20275;-54
2023/06/13 00:07:22;;;;;;;3.65;3.03;;;;;;;;;;5008253;28;20244;-52
2023/06/13 00:09:53;;;;;;;4.10;3.45;;;;;;;;;;4997196;28;20237;-53
2023/06/13 00:12:20;;;;;;;3.20;2.90;;;;;;;;;;4991270;28;20229;-52
2023/06/13 00:14:50;;;;;;;2.92;2.55;;;;;;;;;;4998533;28;20225;-52
2023/06/13 00:17:16;;;;;;;3.55;2.75;;;;;;;;;;4996275;28;20237;-54
2023/06/13 00:19:45;;;;;;;3.25;2.95;;;;;;;;;;4990788;28;20230;-53
2023/06/13 00:22:14;;;;;;;3.15;2.85;;;;;;;;;;4998747;28;20681;-53
2023/06/13 00:24:40;;;;;;;2.92;2.60;;;;;;;;;;4988201;28;20240;-53
2023/06/13 00:27:07;;;;;;;2.58;2.38;;;;;;;;;;5016668;28;20656;-54
2023/06/13 00:29:34;;;;;;;3.20;2.90;;;;;;;;;;4992112;28;20261;-53
2023/06/13 00:32:01;;;;;;;3.20;2.92;;;;;;;;;;5005513;28;20232;-52
2023/06/13 00:34:27;;;;;;;3.20;2.90;;;;;;;;;;4994944;28;20240;-52
2023/06/13 00:36:55;;;;;;;3.13;2.92;;;;;;;;;;4990479;28;20553;-52
2023/06/13 00:39:23;;;;;;;4.97;2.70;;;;;;;;;;4984928;28;20237;-53
2023/06/13 00:41:50;;;;;;;2.95;2.50;;;;;;;;;;5005050;28;20264;-53
2023/06/13 00:44:16;;;;;;;2.50;2.30;;;;;;;;;;5000052;28;20526;-53
2023/06/13 00:46:44;;;;;;;5.78;3.28;;;;;;;;;;4992237;28;20561;-54
2023/06/13 00:49:12;;;;;;;2.50;2.33;;;;;;;;;;4998486;28;20597;-58
2023/06/13 00:51:41;;;;;;;4.22;2.65;;;;;;;;;;4983805;28;20241;-52
2023/06/13 00:54:11;;;;;;;3.30;2.50;;;;;;;;;;4987542;28;20291;-54
2023/06/13 00:56:38;;;;;;;8.90;2.60;;;;;;;;;;4982479;28;20241;-53
2023/06/13 00:59:05;;;;;;;3.42;2.40;;;;;;;;;;4998794;28;20241;-51
2023/06/13 01:01:32;;;;;;;5.28;2.78;;;;;;;;;;4993037;28;20225;-52
2023/06/13 01:03:59;;;;;;;3.83;3.42;;;;;;;;;;4988828;28;20239;-53
2023/06/13 01:06:28;;;;;;;3.13;2.72;;;;;;;;;;4996383;28;20237;-53
2023/06/13 01:08:58;;;;;;;3.65;3.22;;;;;;;;;;4983426;28;20780;-51
2023/06/13 01:11:32;;;;;;;4.35;3.20;;;;;;;;;;4991636;28;20720;-51
2023/06/13 01:14:01;;;;;;;4.18;3.55;;;;;;;;;;4995305;28;20240;-52
2023/06/13 01:16:33;;;;;;;5.85;3.38;;;;;;;;;;4995173;28;20229;-53
2023/06/13 01:19:04;;;;;;;3.78;3.15;;;;;;;;;;4981986;28;20236;-53
2023/06/13 01:21:31;;;;;;;3.92;2.95;;;;;;;;;;4988188;28;20311;-53
2023/06/13 01:24:00;;;;;;;5.68;3.25;;;;;;;;;;5002942;28;20249;-53
2023/06/13 01:26:42;;;;;;;7.85;3.42;;;;;;;;;;4992459;28;20263;-52
2023/06/13 01:29:09;;;;;;;3.20;2.85;;;;;;;;;;4986855;28;20546;-52
2023/06/13 01:31:37;;;;;;;5.32;3.20;;;;;;;;;;4996135;28;20229;-52
2023/06/13 01:34:04;;;;;;;3.78;3.25;;;;;;;;;;4991353;28;20276;-52
2023/06/13 01:36:31;;;;;;;3.45;3.10;;;;;;;;;;5000178;28;20241;-52
2023/06/13 01:38:58;;;;;;;3.63;3.08;;;;;;;;;;4992301;28;20229;-52
2023/06/13 01:41:24;;;;;;;3.53;2.72;;;;;;;;;;4990771;28;20679;-52
2023/06/13 01:43:52;;;;;;;4.82;2.83;;;;;;;;;;5014968;28;20241;-53
2023/06/13 01:46:23;;;;;;;3.42;2.72;;;;;;;;;;5003495;28;20715;-52
2023/06/13 01:48:55;;;;;;;2.65;2.45;;;;;;;;;;5002874;28;20765;-52
2023/06/13 01:51:27;;;;;;;3.92;2.60;;;;;;;;;;5003103;28;20229;-54
2023/06/13 01:53:56;;;;;;;3.70;2.83;;;;;;;;;;5001414;28;20661;-52
2023/06/13 01:56:23;;;;;;;3.22;2.67;;;;;;;;;;5002307;28;20960;-51
2023/06/13 01:58:53;;;;;;;4.22;3.15;;;;;;;;;;5001055;28;20822;-53
2023/06/13 02:01:21;;;;;;;3.42;2.90;;;;;;;;;;5003672;28;20237;-52
2023/06/13 02:03:48;;;;;;;7.30;2.83;;;;;;;;;;5004316;28;20949;-52
2023/06/13 02:06:15;;;;;;;2.72;2.50;;;;;;;;;;5003096;28;20259;-52
2023/06/13 02:08:43;;;;;;;3.45;2.65;;;;;;;;;;5002123;28;20238;-51
2023/06/13 02:11:10;;;;;;;3.92;3.17;;;;;;;;;;5002557;28;20256;-51
2023/06/13 02:13:38;;;;;;;5.20;2.58;;;;;;;;;;5004134;28;20248;-52
2023/06/13 02:16:06;;;;;;;2.97;2.60;;;;;;;;;;5003840;28;20241;-52
2023/06/13 02:18:37;;;;;;;4.97;3.15;;;;;;;;;;5003037;28;20525;-51
2023/06/13 02:21:04;;;;;;;3.20;2.90;;;;;;;;;;5000179;28;20221;-53
2023/06/13 02:23:31;;;;;;;5.57;2.58;;;;;;;;;;5008138;28;20286;-53
2023/06/13 02:25:58;;;;;;;3.17;2.80;;;;;;;;;;5000710;28;20261;-54
2023/06/13 02:28:28;;;;;;;3.33;3.03;;;;;;;;;;5005163;28;20244;-52
2023/06/13 02:30:55;;;;;;;4.47;2.72;;;;;;;;;;5002769;28;20703;-52
2023/06/13 02:33:39;;;;;;;4.30;2.83;;;;;;;;;;4999698;28;20233;-52
2023/06/13 02:36:07;;;;;;;3.05;2.80;;;;;;;;;;4999003;28;20228;-53
2023/06/13 02:38:34;;;;;;;3.38;3.08;;;;;;;;;;4996134;28;20229;-52
2023/06/13 02:41:02;;;;;;;4.93;3.00;;;;;;;;;;5004919;28;20233;-54
2023/06/13 02:43:29;;;;;;;4.20;3.20;;;;;;;;;;5005928;28;20237;-51
2023/06/13 02:45:56;;;;;;;3.55;3.25;;;;;;;;;;5001506;28;20334;-52
2023/06/13 02:48:25;;;;;;;4.03;2.47;;;;;;;;;;5004575;28;20241;-52
2023/06/13 02:50:53;;;;;;;3.83;3.03;;;;;;;;;;5000501;28;20246;-53
2023/06/13 02:53:21;;;;;;;3.75;3.28;;;;;;;;;;5001738;28;20221;-52
2023/06/13 02:55:48;;;;;;;3.72;2.75;;;;;;;;;;5000094;28;20233;-52
2023/06/13 02:58:15;;;;;;;3.95;3.17;;;;;;;;;;5001936;28;20257;-52
2023/06/13 03:00:42;;;;;;;4.63;3.08;;;;;;;;;;5001680;28;20283;-52
2023/06/13 03:03:11;;;;;;;3.33;3.03;;;;;;;;;;5005395;28;20233;-53
2023/06/13 03:05:37;;;;;;;3.42;3.13;;;;;;;;;;5005972;28;20237;-55
2023/06/13 03:08:04;;;;;;;2.83;2.60;;;;;;;;;;5005183;28;20789;-53
2023/06/13 03:10:33;;;;;;;3.30;2.95;;;;;;;;;;5005160;28;20325;-51
2023/06/13 03:12:59;;;;;;;3.63;3.17;;;;;;;;;;5006466;28;20229;-51
2023/06/13 03:15:27;;;;;;;2.90;2.63;;;;;;;;;;5004535;28;20332;-52
2023/06/13 03:17:53;;;;;;;4.65;3.15;;;;;;;;;;5003661;28;20643;-52
2023/06/13 03:20:23;;;;;;;3.25;2.95;;;;;;;;;;5004330;28;20232;-52
2023/06/13 03:22:50;;;;;;;3.40;3.10;;;;;;;;;;5006075;28;20240;-53
2023/06/13 03:25:18;;;;;;;3.38;3.08;;;;;;;;;;5012536;28;20233;-52
2023/06/13 03:27:46;;;;;;;6.55;2.88;;;;;;;;;;5002465;28;20248;-52
2023/06/13 03:30:13;;;;;;;4.53;3.60;;;;;;;;;;5005596;28;20237;-52
2023/06/13 03:32:40;;;;;;;4.13;3.40;;;;;;;;;;5007215;28;20260;-53
2023/06/13 03:35:07;;;;;;;3.33;3.03;;;;;;;;;;4997989;28;20307;-55
2023/06/13 03:37:34;;;;;;;3.85;2.33;;;;;;;;;;5004207;28;20307;-52
2023/06/13 03:40:04;;;;;;;7.55;3.13;;;;;;;;;;5005432;28;20584;-53
2023/06/13 03:42:32;;;;;;;4.53;3.28;;;;;;;;;;5005614;28;20233;-53
2023/06/13 03:45:00;;;;;;;5.13;3.30;;;;;;;;;;5005333;28;20241;-53
2023/06/13 03:47:27;;;;;;;4.30;3.15;;;;;;;;;;5002781;28;20336;-52
2023/06/13 03:49:54;;;;;;;4.18;3.22;;;;;;;;;;5004759;28;20578;-52
2023/06/13 03:52:21;;;;;;;3.50;3.20;;;;;;;;;;5005444;28;20236;-51
2023/06/13 03:54:52;;;;;;;5.85;3.30;;;;;;;;;;5001663;28;20339;-54
2023/06/13 03:57:19;;;;;;;3.50;2.95;;;;;;;;;;5002779;28;21182;-54
2023/06/13 03:59:46;;;;;;;3.75;3.45;;;;;;;;;;5003037;28;20229;-52
2023/06/13 04:02:14;;;;;;;5.38;3.05;;;;;;;;;;5000759;28;20235;-53
2023/06/13 04:04:44;;;;;;;4.85;3.17;;;;;;;;;;5004439;28;20246;-52
2023/06/13 04:07:11;;;;;;;10.98;3.53;;;;;;;;;;5001480;28;20708;-53
2023/06/13 04:09:38;;;;;;;6.43;3.70;;;;;;;;;;4995954;28;20707;-53
2023/06/13 04:12:05;;;;;;;6.03;4.45;;;;;;;;;;4997828;28;20337;-53
2023/06/13 04:14:32;;;;;;;5.32;3.42;;;;;;;;;;4995308;28;20896;-53
2023/06/13 04:17:00;;;;;;;4.25;3.83;;;;;;;;;;4991512;28;20323;-53
2023/06/13 04:19:29;;;;;;;5.35;3.10;;;;;;;;;;4992146;28;20325;-52
2023/06/13 04:21:56;;;;;;;3.97;3.17;;;;;;;;;;4998813;28;20241;-52
2023/06/13 04:24:23;;;;;;;3.65;2.80;;;;;;;;;;4994883;28;20261;-52
2023/06/13 04:26:58;;;;;;;4.07;3.70;;;;;;;;;;4989129;28;20265;-52
2023/06/13 04:29:25;;;;;;;4.25;3.13;;;;;;;;;;4994474;28;20232;-51
2023/06/13 04:31:53;;;;;;;3.40;3.17;;;;;;;;;;4995346;28;20606;-52
2023/06/13 04:34:20;;;;;;;4.28;3.22;;;;;;;;;;5001110;28;20299;-52
2023/06/13 04:36:48;;;;;;;6.07;3.63;;;;;;;;;;5002918;28;20230;-53
2023/06/13 04:39:15;;;;;;;3.33;3.03;;;;;;;;;;5000096;28;20241;-52
2023/06/13 04:41:43;;;;;;;4.50;3.80;;;;;;;;;;4999272;28;20233;-53
2023/06/13 04:44:10;;;;;;;7.18;3.70;;;;;;;;;;5003541;28;20252;-52
2023/06/13 04:46:38;;;;;;;5.57;3.42;;;;;;;;;;5001708;28;20248;-52
2023/06/13 04:49:05;;;;;;;4.45;3.17;;;;;;;;;;5001601;28;20233;-55
2023/06/13 04:51:32;;;;;;;5.15;3.55;;;;;;;;;;4991203;28;20268;-54
2023/06/13 04:54:01;;;;;;;3.60;3.20;;;;;;;;;;4988978;28;20233;-52
2023/06/13 04:56:28;;;;;;;4.53;3.50;;;;;;;;;;4996738;28;20245;-52
2023/06/13 04:58:55;;;;;;;3.75;3.30;;;;;;;;;;4999633;28;20301;-54
2023/06/13 05:01:26;;;;;;;3.88;3.47;;;;;;;;;;4998187;28;20233;-51
2023/06/13 05:03:53;;;;;;;3.97;3.58;;;;;;;;;;5001230;28;21659;-53
2023/06/13 05:06:20;;;;;;;5.75;3.60;;;;;;;;;;5007618;28;20361;-52
2023/06/13 05:08:47;;;;;;;5.95;4.65;;;;;;;;;;5001266;28;20295;-53
2023/06/13 05:11:15;;;;;;;4.65;4.10;;;;;;;;;;5010528;28;20229;-54
2023/06/13 05:13:42;;;;;;;7.90;3.72;;;;;;;;;;5007880;28;20229;-54
2023/06/13 05:16:09;;;;;;;4.35;3.35;;;;;;;;;;5004864;28;20943;-53
2023/06/13 05:18:40;;;;;;;4.50;4.05;;;;;;;;;;4997544;28;20224;-54
2023/06/13 05:21:07;;;;;;;4.78;3.97;;;;;;;;;;4993222;28;20323;-53
2023/06/13 05:23:35;;;;;;;5.18;3.72;;;;;;;;;;4995016;28;20276;-53
2023/06/13 05:26:02;;;;;;;4.47;4.07;;;;;;;;;;4992964;28;20739;-52
2023/06/13 05:28:30;;;;;;;4.68;4.18;;;;;;;;;;5003637;28;20245;-52
2023/06/13 05:30:58;;;;;;;3.92;3.60;;;;;;;;;;4995295;28;20311;-53
2023/06/13 05:33:25;;;;;;;3.42;3.20;;;;;;;;;;5000476;28;20585;-53
2023/06/13 05:35:52;;;;;;;4.97;4.18;;;;;;;;;;5004140;28;20325;-54
2023/06/13 05:38:18;;;;;;;4.53;4.00;;;;;;;;;;5004041;28;20239;-53
2023/06/13 05:40:45;;;;;;;5.22;3.65;;;;;;;;;;5002862;28;20315;-53
2023/06/13 05:43:12;;;;;;;5.47;4.60;;;;;;;;;;4997043;28;20279;-53
2023/06/13 05:45:40;;;;;;;6.65;4.10;;;;;;;;;;4991589;28;20288;-52
2023/06/13 05:48:07;;;;;;;4.50;4.10;;;;;;;;;;4981442;28;20233;-53
2023/06/13 05:50:34;;;;;;;7.60;4.38;;;;;;;;;;4993964;28;20726;-53
2023/06/13 05:53:01;;;;;;;5.57;3.97;;;;;;;;;;4989506;28;20332;-53
2023/06/13 05:55:28;;;;;;;6.18;4.10;;;;;;;;;;4991167;28;20701;-53
2023/06/13 05:57:54;;;;;;;4.88;4.10;;;;;;;;;;4999439;28;20243;-53
2023/06/13 06:00:22;;;;;;;6.03;3.80;;;;;;;;;;4993297;28;20236;-54
2023/06/13 06:02:50;;;;;;;6.60;4.20;;;;;;;;;;4988049;28;20677;-54
2023/06/13 06:05:19;;;;;;;5.45;4.53;;;;;;;;;;4979874;28;20324;-53
2023/06/13 06:07:45;;;;;;;5.10;4.43;;;;;;;;;;4994179;28;20747;-52
2023/06/13 06:10:13;;;;;;;5.55;3.70;;;;;;;;;;4995981;28;20240;-53
2023/06/13 06:12:39;;;;;;;4.53;4.00;;;;;;;;;;4995212;28;20276;-52
2023/06/13 06:15:07;;;;;;;8.77;4.30;;;;;;;;;;4992813;28;20229;-52
2023/06/13 06:17:34;;;;;;;6.18;4.28;;;;;;;;;;4992735;28;20237;-53
2023/06/13 06:20:03;;;;;;;5.18;4.10;;;;;;;;;;5000259;28;20279;-53
2023/06/13 06:22:30;;;;;;;6.72;3.60;;;;;;;;;;4995801;28;20774;-53
2023/06/13 06:24:57;;;;;;;9.65;4.75;;;;;;;;;;4995501;28;20640;-53
2023/06/13 06:27:25;;;;;;;5.28;4.13;;;;;;;;;;4986714;28;20241;-53
2023/06/13 06:29:52;;;;;;;5.40;4.43;;;;;;;;;;4991290;28;20229;-53
2023/06/13 06:32:19;;;;;;;5.47;4.32;;;;;;;;;;4998334;28;20228;-53
2023/06/13 06:34:45;;;;;;;7.70;4.30;;;;;;;;;;4997299;28;20233;-53
2023/06/13 06:37:14;;;;;;;9.60;4.30;;;;;;;;;;5000528;28;20727;-54
2023/06/13 06:39:43;;;;;;;6.55;4.38;;;;;;;;;;4998513;28;20233;-53
2023/06/13 06:42:10;;;;;;;4.57;4.15;;;;;;;;;;4998809;28;20251;-52
2023/06/13 06:44:37;;;;;;;10.07;5.20;;;;;;;;;;4999203;28;20260;-52
2023/06/13 06:47:04;;;;;;;7.25;5.07;;;;;;;;;;4994793;28;20283;-53
2023/06/13 06:49:30;;;;;;;5.38;4.88;;;;;;;;;;4993225;28;20233;-54
2023/06/13 06:51:57;;;;;;;10.60;5.13;;;;;;;;;;4994462;28;20715;-53
2023/06/13 06:54:26;;;;;;;5.20;4.53;;;;;;;;;;4996139;28;20765;-53
2023/06/13 06:56:53;;;;;;;6.50;4.47;;;;;;;;;;4990408;28;20236;-52
2023/06/13 06:59:19;;;;;;;5.18;3.92;;;;;;;;;;4999377;28;20427;-52
2023/06/13 07:01:46;;;;;;;8.00;4.10;;;;;;;;;;4992714;28;20241;-53
2023/06/13 07:04:13;;;;;;;6.82;4.50;;;;;;;;;;4993207;28;20311;-52
2023/06/13 07:06:40;;;;;;;10.60;5.57;;;;;;;;;;4993569;28;20238;-53
2023/06/13 07:09:06;;;;;;;4.20;3.90;;;;;;;;;;4993537;28;20766;-52
2023/06/13 07:11:35;;;;;;;8.45;3.90;;;;;;;;;;4984706;28;20237;-51
2023/06/13 07:14:01;;;;;;;4.80;4.40;;;;;;;;;;4997148;28;20782;-53
2023/06/13 07:16:28;;;;;;;4.75;4.25;;;;;;;;;;4996540;28;20242;-53
2023/06/13 07:18:55;;;;;;;6.18;4.63;;;;;;;;;;5003011;28;20564;-52
2023/06/13 07:21:21;;;;;;;7.30;4.80;;;;;;;;;;4995875;28;20245;-53
2023/06/13 07:23:48;;;;;;;6.38;5.78;;;;;;;;;;4999143;28;20603;-53
2023/06/13 07:26:15;;;;;;;5.05;4.55;;;;;;;;;;4999656;28;20681;-52
2023/06/13 07:28:43;;;;;;;3.80;3.50;;;;;;;;;;5002670;28;20251;-52
2023/06/13 07:31:09;;;;;;;8.18;4.75;;;;;;;;;;4987722;28;20238;-52
2023/06/13 07:33:36;;;;;;;4.20;3.80;;;;;;;;;;4998681;28;20230;-53
2023/06/13 07:36:03;;;;;;;7.25;3.83;;;;;;;;;;4998758;28;20232;-52
2023/06/13 07:38:29;;;;;;;3.67;3.38;;;;;;;;;;4997011;28;20229;-53
2023/06/13 07:40:56;;;;;;;4.25;3.60;;;;;;;;;;4994408;28;20439;-53
2023/06/13 07:43:22;;;;;;;6.80;4.55;;;;;;;;;;4996902;28;20727;-52
2023/06/13 07:45:51;;;;;;;10.25;5.55;;;;;;;;;;4996063;28;20590;-53
2023/06/13 07:48:17;;;;;;;5.10;3.83;;;;;;;;;;4997737;28;20233;-53
2023/06/13 07:50:45;;;;;;;5.07;3.08;;;;;;;;;;4996806;28;20279;-53
2023/06/13 07:53:11;;;;;;;5.15;3.72;;;;;;;;;;4997476;28;20669;-54
2023/06/13 07:55:40;;;;;;;7.20;4.00;;;;;;;;;;4980202;28;20241;-53
2023/06/13 07:58:07;;;;;;;13.48;4.72;;;;;;;;;;4989270;28;20233;-52
2023/06/13 08:00:33;;;;;;;9.18;4.97;;;;;;;;;;4995333;28;20230;-51
2023/06/13 08:03:03;;;;;;;10.23;4.75;;;;;;;;;;4995112;28;20241;-52
2023/06/13 08:05:29;;;;;;;7.63;4.38;;;;;;;;;;4994841;28;20257;-54
2023/06/13 08:07:57;;;;;;;9.75;5.10;;;;;;;;;;4996039;28;20265;-53
2023/06/13 08:10:24;;;;;;;6.80;4.00;;;;;;;;;;4998073;28;20233;-53
2023/06/13 08:12:51;;;;;;;5.43;3.88;;;;;;;;;;4993050;28;20232;-52
2023/06/13 08:15:17;;;;;;;15.88;4.53;;;;;;;;;;4996853;28;20233;-53
2023/06/13 08:17:44;;;;;;;6.15;4.43;;;;;;;;;;4993769;28;20703;-52
2023/06/13 08:20:13;;;;;;;9.43;5.38;;;;;;;;;;5001617;28;20616;-53
2023/06/13 08:22:40;;;;;;;7.05;3.95;;;;;;;;;;4996801;28;20242;-53
2023/06/13 08:25:08;;;;;;;5.13;3.72;;;;;;;;;;4995480;28;20239;-52
2023/06/13 08:27:36;;;;;;;7.05;4.30;;;;;;;;;;4994805;28;20634;-52
2023/06/13 08:30:03;;;;;;;7.45;4.50;;;;;;;;;;4997823;28;20259;-51
2023/06/13 08:32:31;;;;;;;14.60;4.90;;;;;;;;;;5002447;28;20930;-53
2023/06/13 08:34:58;;;;;;;5.80;3.53;;;;;;;;;;4983036;28;20233;-52
2023/06/13 08:37:26;;;;;;;4.63;4.10;;;;;;;;;;4996203;28;20238;-53
2023/06/13 08:39:53;;;;;;;8.70;3.80;;;;;;;;;;4994939;28;20241;-52
2023/06/13 08:42:20;;;;;;;4.20;3.80;;;;;;;;;;4997342;28;20228;-53
2023/06/13 08:44:46;;;;;;;6.65;3.60;;;;;;;;;;4998086;28;20233;-52
2023/06/13 08:47:13;;;;;;;5.40;3.78;;;;;;;;;;4995589;28;20817;-52
2023/06/13 08:49:40;;;;;;;4.32;3.67;;;;;;;;;;4995159;28;20614;-52
2023/06/13 08:52:11;;;;;;;3.53;2.67;;;;;;;;;;4991955;28;20777;-51
2023/06/13 08:54:40;;;;;;;3.20;2.90;;;;;;;;;;4995381;28;20264;-52
2023/06/13 08:57:07;;;;;;;5.63;3.55;;;;;;;;;;4994106;28;20320;-52
2023/06/13 08:59:35;;;;;;;8.00;3.92;;;;;;;;;;4995040;28;20241;-52
2023/06/13 09:02:02;;;;;;;14.88;4.55;;;;;;;;;;4997987;28;20229;-52
2023/06/13 09:04:31;;;;;;;13.25;5.35;;;;;;;;;;4985537;28;20782;-52
2023/06/13 09:06:58;;;;;;;3.38;3.08;;;;;;;;;;5010507;28;20241;-53
2023/06/13 09:09:25;;;;;;;3.85;3.50;;;;;;;;;;4996341;28;20662;-52
2023/06/13 09:11:55;;;;;;;4.07;3.60;;;;;;;;;;4999126;28;20781;-52
2023/06/13 09:14:22;;;;;;;8.50;4.90;;;;;;;;;;5003653;28;20229;-52
2023/06/13 09:16:50;;;;;;;4.18;3.63;;;;;;;;;;5003666;28;20229;-51
2023/06/13 09:19:17;;;;;;;5.22;3.80;;;;;;;;;;4996485;28;20243;-51
2023/06/13 09:21:44;;;;;;;8.45;3.22;;;;;;;;;;5009278;28;20267;-52
2023/06/13 09:24:12;;;;;;;10.60;3.63;;;;;;;;;;4996051;28;20283;-52
2023/06/13 09:26:39;;;;;;;10.13;3.28;;;;;;;;;;4991896;28;20325;-52
2023/06/13 09:29:08;;;;;;;4.60;3.30;;;;;;;;;;4993642;28;20312;-53
2023/06/13 09:31:37;;;;;;;13.98;3.50;;;;;;;;;;4992607;28;20291;-52
2023/06/13 09:34:05;;;;;;;6.53;3.42;;;;;;;;;;4992691;28;20255;-53
2023/06/13 09:36:34;;;;;;;11.13;4.43;;;;;;;;;;4993855;28;20237;-53
2023/06/13 09:39:02;;;;;;;4.38;3.30;;;;;;;;;;4995965;28;20256;-53
2023/06/13 09:41:31;;;;;;;3.80;2.92;;;;;;;;;;4998619;28;20260;-52
2023/06/13 09:43:58;;;;;;;3.35;3.05;;;;;;;;;;4994058;28;20264;-52
2023/06/13 09:46:28;;;;;;;5.40;2.97;;;;;;;;;;4994141;28;20237;-52
2023/06/13 09:48:56;;;;;;;10.60;3.65;;;;;;;;;;4991409;28;20232;-52
2023/06/13 09:51:22;;;;;;;7.70;3.83;;;;;;;;;;4999918;28;20256;-53
2023/06/13 09:53:49;;;;;;;8.95;3.63;;;;;;;;;;4999298;28;20818;-54
2023/06/13 09:56:16;;;;;;;17.63;4.63;;;;;;;;;;5003887;28;20268;-54
2023/06/13 09:58:43;;;;;;;9.95;3.70;;;;;;;;;;4997887;28;20488;-53
2023/06/13 10:01:15;;;;;;;10.75;2.95;;;;;;;;;;4998953;28;20240;-55
2023/06/13 10:03:43;;;;;;;3.85;2.78;;;;;;;;;;4995257;28;20324;-53
2023/06/13 10:06:10;;;;;;;5.22;2.70;;;;;;;;;;4990910;28;20248;-53
2023/06/13 10:08:37;;;;;;;4.57;2.85;;;;;;;;;;4987643;28;20828;-53
2023/06/13 10:11:06;;;;;;;12.20;3.83;;;;;;;;;;5016875;28;20233;-52
2023/06/13 10:13:35;;;;;;;8.55;3.45;;;;;;;;;;4994323;28;20241;-54
2023/06/13 10:16:03;;;;;;;7.72;3.58;;;;;;;;;;4998202;28;20624;-54
2023/06/13 10:18:32;;;;;;;7.60;3.03;;;;;;;;;;4991492;28;20237;-53
2023/06/13 10:21:01;;;;;;;4.35;3.33;;;;;;;;;;4993617;28;20249;-54
2023/06/13 10:23:28;;;;;;;3.28;2.88;;;;;;;;;;5000173;28;20324;-51
2023/06/13 10:25:58;;;;;;;3.67;2.85;;;;;;;;;;4995382;28;20295;-53
2023/06/13 10:28:30;;;;;;;2.65;2.45;;;;;;;;;;4986138;28;20240;-53
2023/06/13 10:31:03;;;;;;;4.82;2.47;;;;;;;;;;4993978;28;20237;-52
2023/06/13 10:33:52;;;;;;;4.80;3.13;;;;;;;;;;4998455;28;20661;-52
2023/06/13 10:36:23;;;;;;;8.38;4.10;;;;;;;;;;4995377;28;20663;-53
2023/06/13 10:39:17;;;;;;;8.38;3.95;;;;;;;;;;4995060;28;20699;-52
2023/06/13 10:41:58;;;;;;;5.18;3.70;;;;;;;;;;4994903;28;20245;-52
2023/06/13 10:44:28;;;;;;;4.13;3.13;;;;;;;;;;4985576;28;20324;-53
2023/06/13 11:01:55;;;;;;;5.03;3.08;;;;;;;;;;5006139;28;20239;-55
2023/06/13 11:04:23;;;;;;;6.85;3.35;;;;;;;;;;4994457;28;20239;-55
2023/06/13 11:06:51;;;;;;;5.55;2.92;;;;;;;;;;5000762;28;20253;-55
2023/06/13 11:09:19;;;;;;;4.47;2.78;;;;;;;;;;5003583;28;20248;-55
2023/06/13 11:11:50;;;;;;;5.63;3.10;;;;;;;;;;5000750;28;20299;-55
2023/06/13 11:14:16;;;;;;;6.38;2.85;;;;;;;;;;5015173;28;20237;-55
2023/06/13 11:16:45;;;;;;;5.25;2.90;;;;;;;;;;5011625;28;20233;-57
2023/06/13 11:19:17;;;;;;;8.60;2.83;;;;;;;;;;5007182;28;20243;-56
2023/06/13 11:21:45;;;;;;;6.65;2.88;;;;;;;;;;4997142;28;20232;-56
2023/06/13 11:24:14;;;;;;;3.88;2.70;;;;;;;;;;5007327;28;20237;-55
2023/06/13 11:26:41;;;;;;;5.95;2.70;;;;;;;;;;5012314;28;20241;-55
2023/06/13 11:29:08;;;;;;;4.78;2.70;;;;;;;;;;5008324;28;20233;-55
2023/06/13 11:31:36;;;;;;;6.03;3.17;;;;;;;;;;5006327;28;20280;-55
2023/06/13 11:34:04;;;;;;;6.45;2.72;;;;;;;;;;5008037;28;20237;-55
2023/06/13 11:36:33;;;;;;;2.72;2.38;;;;;;;;;;5007972;28;20271;-55
2023/06/13 11:39:02;;;;;;;7.43;2.95;;;;;;;;;;5026999;28;20229;-55
2023/06/13 11:41:29;;;;;;;7.07;2.72;;;;;;;;;;5008426;28;20245;-55
2023/06/13 11:43:56;;;;;;;2.88;2.60;;;;;;;;;;5007694;28;20233;-55
2023/06/13 11:46:23;;;;;;;5.13;2.60;;;;;;;;;;5014488;28;20733;-55
2023/06/13 11:48:54;;;;;;;7.43;2.45;;;;;;;;;;5012929;28;20329;-55
2023/06/13 11:51:20;;;;;;;4.05;2.75;;;;;;;;;;5006585;28;20633;-56
2023/06/13 11:53:52;;;;;;;4.65;2.40;;;;;;;;;;5010189;28;20609;-56
2023/06/13 11:56:19;;;;;;;5.40;2.53;;;;;;;;;;5007051;28;20257;-55
2023/06/13 11:58:46;;;;;;;4.28;2.50;;;;;;;;;;5006688;28;20237;-56
2023/06/13 12:01:15;;;;;;;5.30;2.80;;;;;;;;;;5011996;28;20240;-56
2023/06/13 12:03:42;;;;;;;2.40;2.20;;;;;;;;;;5010260;28;20252;-56
2023/06/13 12:06:09;;;;;;;4.28;2.15;;;;;;;;;;5006593;28;20229;-56
2023/06/13 12:08:35;;;;;;;3.13;2.17;;;;;;;;;;5008638;28;20265;-56
2023/06/13 12:11:05;;;;;;;2.38;1.85;;;;;;;;;;5008878;28;20741;-57
2023/06/13 12:13:33;;;;;;;2.80;2.10;;;;;;;;;;5006535;28;20337;-55
2023/06/13 12:15:59;;;;;;;2.90;2.33;;;;;;;;;;5007198;28;20244;-56
2023/06/13 12:18:28;;;;;;;4.43;2.78;;;;;;;;;;5011066;28;20279;-56
2023/06/13 12:20:56;;;;;;;4.90;2.28;;;;;;;;;;5012387;28;20271;-58
2023/06/13 12:23:23;;;;;;;3.13;2.13;;;;;;;;;;5015981;28;20324;-55
2023/06/13 12:25:50;;;;;;;5.45;2.42;;;;;;;;;;5009573;28;20245;-55
2023/06/13 12:28:19;;;;;;;4.22;2.17;;;;;;;;;;5006812;28;20793;-55
2023/06/13 12:30:49;;;;;;;2.58;2.20;;;;;;;;;;5007190;28;20237;-55
2023/06/13 12:33:19;;;;;;;2.80;2.10;;;;;;;;;;5002913;28;20232;-55
2023/06/13 12:35:49;;;;;;;4.47;2.50;;;;;;;;;;5002113;28;20601;-55
2023/06/13 12:38:16;;;;;;;4.90;2.30;;;;;;;;;;5002913;28;20247;-55
2023/06/13 12:40:45;;;;;;;4.68;2.92;;;;;;;;;;5002305;28;20236;-55
2023/06/13 12:43:12;;;;;;;4.05;2.53;;;;;;;;;;5009943;28;20236;-55
2023/06/13 12:45:42;;;;;;;3.95;2.22;;;;;;;;;;5013237;28;20299;-55
2023/06/13 12:48:15;;;;;;;7.53;2.80;;;;;;;;;;5003810;28;20279;-55
2023/06/13 12:50:42;;;;;;;4.95;2.67;;;;;;;;;;5005837;28;20245;-54
2023/06/13 12:53:09;;;;;;;4.03;2.58;;;;;;;;;;5010228;28;20721;-56
2023/06/13 12:55:37;;;;;;;5.68;3.20;;;;;;;;;;5005675;28;20665;-55
2023/06/13 12:58:23;;;;;;;7.88;2.85;;;;;;;;;;4999698;28;20238;-55
2023/06/13 13:00:53;;;;;;;3.28;3.03;;;;;;;;;;5005725;28;20308;-56
2023/06/13 13:03:19;;;;;;;7.22;2.85;;;;;;;;;;5004714;28;20257;-55
2023/06/13 13:05:46;;;;;;;2.92;2.65;;;;;;;;;;5010650;28;20237;-56
2023/06/13 13:08:13;;;;;;;8.85;2.60;;;;;;;;;;5008259;28;20276;-55
2023/06/13 13:10:39;;;;;;;5.70;2.63;;;;;;;;;;5005801;28;20307;-55
2023/06/13 13:13:07;;;;;;;6.57;2.63;;;;;;;;;;5005236;28;20776;-55
2023/06/13 13:15:33;;;;;;;4.15;2.83;;;;;;;;;;5001753;28;20669;-55
2023/06/13 13:18:01;;;;;;;2.55;2.28;;;;;;;;;;5002994;28;20241;-55
2023/06/13 13:20:27;;;;;;;3.13;2.72;;;;;;;;;;5000361;28;20332;-56
2023/06/13 13:22:54;;;;;;;5.35;2.63;;;;;;;;;;5007314;28;20241;-55
2023/06/13 13:25:21;;;;;;;3.33;2.60;;;;;;;;;;5003714;28;20776;-55
2023/06/13 13:27:47;;;;;;;4.35;2.60;;;;;;;;;;5002823;28;20740;-55
2023/06/13 13:30:15;;;;;;;4.53;2.35;;;;;;;;;;5002366;28;20244;-55
2023/06/13 13:32:42;;;;;;;2.28;2.13;;;;;;;;;;5003911;28;20284;-55
2023/06/13 13:35:10;;;;;;;4.38;2.63;;;;;;;;;;5003740;28;20254;-55
2023/06/13 13:37:36;;;;;;;2.72;2.50;;;;;;;;;;5004583;28;20576;-55
2023/06/13 13:40:04;;;;;;;3.40;2.70;;;;;;;;;;5004808;28;20233;-56
2023/06/13 13:42:36;;;;;;;2.97;2.58;;;;;;;;;;5003762;28;20239;-56
2023/06/13 13:45:02;;;;;;;5.05;2.42;;;;;;;;;;5012081;28;20286;-55
2023/06/13 13:47:29;;;;;;;4.88;2.45;;;;;;;;;;5005310;28;20287;-56
2023/06/13 13:49:57;;;;;;;4.18;2.55;;;;;;;;;;5004574;28;20268;-56
2023/06/13 13:52:25;;;;;;;2.88;2.65;;;;;;;;;;5005498;28;20872;-56
2023/06/13 13:54:51;;;;;;;5.00;2.50;;;;;;;;;;5002832;28;20603;-55
2023/06/13 13:57:18;;;;;;;3.00;2.72;;;;;;;;;;4999984;28;20665;-55
2023/06/13 13:59:45;;;;;;;4.38;2.60;;;;;;;;;;5005637;28;20236;-54
2023/06/13 14:02:11;;;;;;;2.17;2.05;;;;;;;;;;5002989;28;20229;-56
2023/06/13 14:04:38;;;;;;;2.58;2.13;;;;;;;;;;5001512;28;20319;-55
2023/06/13 14:07:04;;;;;;;3.40;2.30;;;;;;;;;;5005626;28;20252;-55
2023/06/13 14:09:32;;;;;;;6.68;2.50;;;;;;;;;;4990816;28;20743;-55
2023/06/13 14:11:59;;;;;;;3.28;2.58;;;;;;;;;;4998384;28;20316;-55
2023/06/13 14:14:25;;;;;;;6.38;2.50;;;;;;;;;;5002772;28;20259;-55
2023/06/13 14:16:52;;;;;;;4.38;2.75;;;;;;;;;;5004241;28;20236;-54
2023/06/13 14:19:18;;;;;;;4.63;2.55;;;;;;;;;;5005136;28;20970;-55
2023/06/13 14:21:45;;;;;;;4.05;2.80;;;;;;;;;;5002050;28;20323;-55
2023/06/13 14:24:12;;;;;;;2.65;2.45;;;;;;;;;;5004732;28;20233;-55
2023/06/13 14:26:40;;;;;;;3.13;2.45;;;;;;;;;;5003428;28;20257;-55
2023/06/13 14:29:06;;;;;;;10.40;2.80;;;;;;;;;;5007015;28;20311;-53
2023/06/13 14:31:33;;;;;;;4.15;2.13;;;;;;;;;;5006970;28;20260;-56
2023/06/13 14:33:59;;;;;;;4.78;3.75;;;;;;;;;;5006872;28;20236;-55
2023/06/13 14:36:26;;;;;;;2.58;2.38;;;;;;;;;;5005648;28;20953;-55
2023/06/13 14:38:52;;;;;;;5.20;3.15;;;;;;;;;;5010837;28;20248;-56
2023/06/13 14:41:19;;;;;;;2.47;2.28;;;;;;;;;;5007992;28;20341;-54
2023/06/13 14:43:47;;;;;;;6.30;2.55;;;;;;;;;;5005539;28;20244;-55
2023/06/13 14:46:13;;;;;;;4.07;2.65;;;;;;;;;;5010681;28;20271;-55
2023/06/13 14:48:40;;;;;;;3.03;2.40;;;;;;;;;;5006140;28;20260;-56
2023/06/13 14:51:07;;;;;;;3.17;2.42;;;;;;;;;;5006222;28;20237;-55
2023/06/13 14:53:35;;;;;;;2.97;2.15;;;;;;;;;;5012033;28;20237;-55
2023/06/13 14:56:03;;;;;;;2.63;2.38;;;;;;;;;;5006744;28;20247;-55
2023/06/13 14:58:30;;;;;;;4.65;2.55;;;;;;;;;;5005415;28;20237;-55
2023/06/13 15:00:58;;;;;;;4.32;2.35;;;;;;;;;;5004901;28;20244;-55